Time;durP1;ratioP1;P1;durP2;ratioP2;P2;SDS_P1;SDS_P2;PMS_P1;PMS_P2;Temp;Humidity;BMP_temperature;BMP_pressure;BME280_temperature;BME280_humidity;BME280_pressure;Samples;Min_cycle;Max_cycle;Signal;HPM_P1;HPM_P2
2024/01/12 00:02:17;;;;;;;56.33;29.47;;;2.70;52.60;;;;;;4993703;28;20194;-55
2024/01/12 00:04:43;;;;;;;54.07;28.83;;;2.70;52.50;;;;;;4985271;28;20670;-59
2024/01/12 00:07:08;;;;;;;47.20;28.63;;;2.80;52.40;;;;;;4989925;28;20309;-56
2024/01/12 00:09:34;;;;;;;47.90;28.27;;;2.80;52.20;;;;;;4994113;28;20686;-56
2024/01/12 00:11:59;;;;;;;53.80;30.27;;;2.70;51.90;;;;;;4988494;28;20654;-58
2024/01/12 00:14:25;;;;;;;48.40;28.90;;;2.70;52.00;;;;;;4993137;28;20640;-59
2024/01/12 00:16:51;;;;;;;49.20;29.70;;;2.70;52.00;;;;;;4986302;28;20337;-58
2024/01/12 00:19:19;;;;;;;47.90;29.33;;;2.70;52.00;;;;;;4993492;28;20211;-56
2024/01/12 00:21:45;;;;;;;51.07;30.37;;;2.70;52.10;;;;;;4988178;28;20190;-54
2024/01/12 00:24:11;;;;;;;47.87;29.00;;;2.70;52.00;;;;;;4993379;28;20477;-56
2024/01/12 00:26:36;;;;;;;43.63;26.70;;;2.70;52.00;;;;;;4995613;28;21113;-53
2024/01/12 00:29:02;;;;;;;47.50;29.13;;;2.70;52.10;;;;;;4991211;28;20669;-56
2024/01/12 00:31:27;;;;;;;45.77;27.77;;;2.60;52.00;;;;;;4992347;28;20184;-56
2024/01/12 00:33:53;;;;;;;45.33;27.83;;;2.60;52.60;;;;;;4986685;28;20255;-58
2024/01/12 00:36:19;;;;;;;44.47;27.97;;;2.60;52.00;;;;;;4993349;28;20766;-53
2024/01/12 00:38:44;;;;;;;49.00;27.07;;;2.60;52.70;;;;;;4994259;28;20222;-59
2024/01/12 00:41:10;;;;;;;49.93;28.83;;;2.60;52.10;;;;;;4992427;28;20182;-59
2024/01/12 00:43:35;;;;;;;50.63;29.70;;;2.60;51.90;;;;;;4986174;28;20222;-56
2024/01/12 00:46:02;;;;;;;39.80;27.00;;;2.60;52.00;;;;;;4987817;28;20203;-56
2024/01/12 00:48:27;;;;;;;52.90;28.77;;;2.60;52.00;;;;;;4987785;28;20201;-57
2024/01/12 00:50:53;;;;;;;49.90;27.43;;;2.50;51.80;;;;;;4985470;28;20438;-55
2024/01/12 00:53:19;;;;;;;52.00;29.50;;;2.40;52.10;;;;;;4989323;28;20190;-55
2024/01/12 00:55:44;;;;;;;42.67;27.60;;;2.50;52.60;;;;;;4985845;28;20210;-53
2024/01/12 00:58:10;;;;;;;46.30;27.83;;;2.50;52.50;;;;;;4987406;28;20185;-57
2024/01/12 01:00:35;;;;;;;46.67;27.87;;;2.50;52.30;;;;;;4986626;28;20871;-56
2024/01/12 01:03:02;;;;;;;42.77;25.97;;;2.50;52.30;;;;;;4984758;28;20647;-56
2024/01/12 01:05:28;;;;;;;43.57;27.77;;;2.50;52.20;;;;;;4995157;28;20791;-57
2024/01/12 01:07:53;;;;;;;50.57;29.50;;;2.50;52.20;;;;;;4989541;28;20443;-57
2024/01/12 01:10:19;;;;;;;39.60;24.33;;;2.40;52.40;;;;;;4992301;28;20433;-55
2024/01/12 01:12:44;;;;;;;43.33;27.17;;;2.40;52.40;;;;;;4987771;28;20277;-58
2024/01/12 01:15:14;;;;;;;49.30;26.33;;;2.40;52.30;;;;;;4991350;28;20232;-60
2024/01/12 01:17:39;;;;;;;50.37;28.03;;;2.30;52.30;;;;;;4994475;28;20195;-55
2024/01/12 01:20:07;;;;;;;42.87;27.97;;;2.40;52.30;;;;;;4992552;28;20528;-53
2024/01/12 01:22:34;;;;;;;42.30;26.97;;;2.40;52.30;;;;;;4992341;28;20179;-59
2024/01/12 01:25:00;;;;;;;43.00;27.13;;;2.40;52.40;;;;;;4985498;28;20473;-56
2024/01/12 01:27:26;;;;;;;53.97;30.20;;;2.40;52.50;;;;;;4988590;28;20437;-56
2024/01/12 01:29:51;;;;;;;48.40;28.87;;;2.30;52.40;;;;;;4992290;28;20995;-55
2024/01/12 01:32:17;;;;;;;43.93;27.50;;;2.30;52.30;;;;;;4990964;28;20182;-55
2024/01/12 01:34:43;;;;;;;46.70;26.70;;;2.20;52.30;;;;;;4990417;28;20183;-57
2024/01/12 01:37:08;;;;;;;44.27;28.40;;;2.20;52.40;;;;;;4994259;28;20709;-53
2024/01/12 01:39:34;;;;;;;42.47;25.47;;;2.10;52.50;;;;;;4991991;28;20256;-57
2024/01/12 01:42:01;;;;;;;42.30;27.00;;;2.10;52.40;;;;;;4990761;28;20233;-58
2024/01/12 01:44:27;;;;;;;46.50;26.77;;;2.20;52.30;;;;;;4992021;28;20440;-57
2024/01/12 01:46:54;;;;;;;44.10;27.37;;;2.00;52.10;;;;;;4988560;28;20473;-56
2024/01/12 01:49:20;;;;;;;47.13;26.87;;;2.00;52.60;;;;;;4987827;28;20194;-56
2024/01/12 01:51:46;;;;;;;45.33;26.30;;;2.00;52.80;;;;;;4986744;28;20881;-59
2024/01/12 01:54:12;;;;;;;40.80;26.87;;;2.00;52.80;;;;;;4991480;28;20507;-54
2024/01/12 01:56:39;;;;;;;44.07;27.13;;;2.10;52.70;;;;;;4986656;28;20214;-55
2024/01/12 01:59:06;;;;;;;44.73;26.50;;;2.20;52.60;;;;;;4991629;28;20560;-55
2024/01/12 02:01:32;;;;;;;46.50;26.37;;;2.10;52.40;;;;;;4987671;28;20441;-55
2024/01/12 02:03:59;;;;;;;39.90;25.37;;;2.10;52.40;;;;;;4988135;28;20485;-55
2024/01/12 02:06:25;;;;;;;48.50;26.50;;;2.00;52.40;;;;;;4993207;28;20890;-57
2024/01/12 02:08:51;;;;;;;46.20;26.30;;;2.00;52.60;;;;;;4990149;28;20585;-56
2024/01/12 02:11:16;;;;;;;48.93;25.93;;;1.90;52.90;;;;;;4985884;28;20529;-60
2024/01/12 02:13:42;;;;;;;44.30;26.73;;;1.70;53.40;;;;;;4990037;28;20191;-54
2024/01/12 02:16:07;;;;;;;43.13;24.50;;;1.80;53.40;;;;;;4989879;28;20221;-56
2024/01/12 02:18:33;;;;;;;39.20;25.07;;;1.90;53.20;;;;;;4987191;28;20218;-54
2024/01/12 02:20:58;;;;;;;46.17;25.77;;;1.90;53.00;;;;;;4984034;28;20190;-56
2024/01/12 02:23:24;;;;;;;43.30;25.80;;;1.90;53.00;;;;;;4983012;28;20573;-57
2024/01/12 02:25:50;;;;;;;44.10;26.20;;;1.90;52.70;;;;;;4988043;28;20207;-56
2024/01/12 02:28:16;;;;;;;41.27;24.60;;;2.00;52.60;;;;;;4988955;28;20208;-60
2024/01/12 02:30:42;;;;;;;41.90;25.27;;;2.00;52.40;;;;;;4988972;28;20956;-56
2024/01/12 02:33:08;;;;;;;46.50;25.47;;;2.00;52.30;;;;;;4991704;28;20595;-54
2024/01/12 02:35:33;;;;;;;45.63;27.20;;;2.00;52.20;;;;;;4983851;28;21019;-54
2024/01/12 02:37:59;;;;;;;47.20;27.10;;;1.90;52.20;;;;;;4989490;28;20217;-56
2024/01/12 02:40:24;;;;;;;39.70;25.60;;;1.90;52.20;;;;;;4986486;28;20268;-56
2024/01/12 02:42:50;;;;;;;43.83;27.47;;;1.90;52.30;;;;;;4987300;28;20193;-57
2024/01/12 02:45:15;;;;;;;43.03;25.03;;;1.90;52.20;;;;;;4985173;28;20321;-56
2024/01/12 02:47:42;;;;;;;47.03;25.50;;;1.90;52.10;;;;;;4988067;28;20202;-57
2024/01/12 02:50:08;;;;;;;40.10;24.33;;;1.90;52.00;;;;;;4977409;28;20253;-56
2024/01/12 02:52:35;;;;;;;41.40;24.47;;;1.90;51.90;;;;;;4977494;28;20477;-52
2024/01/12 02:55:04;;;;;;;45.00;26.67;;;1.90;51.90;;;;;;4986074;28;20182;-59
2024/01/12 02:57:31;;;;;;;43.10;25.83;;;1.90;51.80;;;;;;4976273;28;20448;-56
2024/01/12 02:59:56;;;;;;;39.70;24.50;;;1.90;51.80;;;;;;4982328;28;20478;-56
2024/01/12 03:02:26;;;;;;;41.80;25.63;;;1.80;51.70;;;;;;4991690;28;20808;-56
2024/01/12 03:04:51;;;;;;;41.73;25.43;;;1.80;51.90;;;;;;4983345;28;20186;-57
2024/01/12 03:07:17;;;;;;;47.73;25.53;;;1.80;51.80;;;;;;4983788;28;20461;-58
2024/01/12 03:09:42;;;;;;;44.63;26.07;;;1.80;51.80;;;;;;4985731;28;20190;-56
2024/01/12 03:12:08;;;;;;;44.20;28.03;;;1.80;51.90;;;;;;4981326;28;20185;-53
2024/01/12 03:14:34;;;;;;;46.83;25.70;;;1.70;51.90;;;;;;4982559;28;20240;-53
2024/01/12 03:16:59;;;;;;;51.47;27.77;;;1.80;52.00;;;;;;4981909;28;20578;-56
2024/01/12 03:19:25;;;;;;;47.40;25.57;;;1.80;51.90;;;;;;4988451;28;20207;-56
2024/01/12 03:21:50;;;;;;;45.23;26.07;;;1.80;51.90;;;;;;4987222;28;20210;-54
2024/01/12 03:24:16;;;;;;;43.27;25.17;;;1.70;51.90;;;;;;4986658;28;20751;-61
2024/01/12 03:26:41;;;;;;;44.30;25.60;;;1.70;51.80;;;;;;4979769;28;20212;-54
2024/01/12 03:29:07;;;;;;;44.37;24.67;;;1.70;51.90;;;;;;4992282;28;20193;-54
2024/01/12 03:31:33;;;;;;;45.13;27.13;;;1.70;51.90;;;;;;4990008;28;20186;-56
2024/01/12 03:33:58;;;;;;;43.90;26.60;;;1.60;51.90;;;;;;4994078;28;20190;-54
2024/01/12 03:36:26;;;;;;;40.53;25.93;;;1.60;52.10;;;;;;4990405;28;20836;-54
2024/01/12 03:38:53;;;;;;;47.03;25.87;;;1.60;52.00;;;;;;4993081;28;20218;-57
2024/01/12 03:41:18;;;;;;;39.80;22.43;;;1.60;51.90;;;;;;4990016;28;20576;-52
2024/01/12 03:43:44;;;;;;;41.83;25.93;;;1.60;51.70;;;;;;4994377;28;20544;-57
2024/01/12 03:46:09;;;;;;;38.80;24.37;;;1.60;51.70;;;;;;4993232;28;20674;-57
2024/01/12 03:48:35;;;;;;;41.63;24.83;;;1.60;51.70;;;;;;4987638;28;20182;-54
2024/01/12 03:51:01;;;;;;;45.80;25.87;;;1.60;51.60;;;;;;4991003;28;20277;-54
2024/01/12 03:53:27;;;;;;;47.30;28.30;;;1.60;51.70;;;;;;4991824;28;20522;-54
2024/01/12 03:55:52;;;;;;;44.37;24.47;;;1.50;51.70;;;;;;4994399;28;20211;-55
2024/01/12 03:58:18;;;;;;;41.90;25.03;;;1.50;51.60;;;;;;4988796;28;20182;-57
2024/01/12 04:00:43;;;;;;;44.60;24.50;;;1.50;51.60;;;;;;4990944;28;20212;-58
2024/01/12 04:03:09;;;;;;;38.50;23.80;;;1.50;51.60;;;;;;4997377;28;20190;-54
2024/01/12 04:05:35;;;;;;;41.90;25.73;;;1.50;51.50;;;;;;4992019;28;20745;-54
2024/01/12 04:08:00;;;;;;;42.40;25.00;;;1.40;51.50;;;;;;4990011;28;20260;-54
2024/01/12 04:10:26;;;;;;;47.50;24.77;;;1.40;51.50;;;;;;4984313;28;20577;-58
2024/01/12 04:12:52;;;;;;;43.57;25.00;;;1.40;51.70;;;;;;4988225;28;20194;-53
2024/01/12 04:15:17;;;;;;;42.37;25.90;;;1.30;51.90;;;;;;4988329;28;20190;-56
2024/01/12 04:17:43;;;;;;;39.20;23.33;;;1.30;52.10;;;;;;4996348;28;20187;-54
2024/01/12 04:20:09;;;;;;;42.73;26.53;;;1.30;52.20;;;;;;4993844;28;20300;-56
2024/01/12 04:22:35;;;;;;;43.67;24.10;;;1.40;52.20;;;;;;4985669;28;20183;-59
2024/01/12 04:25:00;;;;;;;41.93;23.47;;;1.30;52.00;;;;;;4991227;28;20851;-57
2024/01/12 04:27:28;;;;;;;42.27;25.23;;;1.30;52.40;;;;;;4987147;28;20662;-57
2024/01/12 04:29:53;;;;;;;43.80;23.53;;;1.30;52.40;;;;;;4991558;28;20681;-55
2024/01/12 04:32:19;;;;;;;43.83;26.67;;;1.40;52.30;;;;;;4990350;28;20441;-59
2024/01/12 04:34:44;;;;;;;41.00;25.20;;;1.30;52.10;;;;;;4989530;28;20178;-55
2024/01/12 04:37:10;;;;;;;42.73;23.77;;;1.30;52.20;;;;;;4993846;28;20263;-57
2024/01/12 04:39:36;;;;;;;39.77;23.70;;;1.20;52.30;;;;;;4988666;28;20226;-56
2024/01/12 04:42:01;;;;;;;43.20;24.97;;;1.10;52.40;;;;;;4991478;28;20191;-56
2024/01/12 04:44:27;;;;;;;46.33;25.33;;;1.00;52.70;;;;;;4990523;28;20676;-56
2024/01/12 04:46:52;;;;;;;42.23;23.57;;;1.00;53.10;;;;;;4988556;28;20250;-57
2024/01/12 04:49:18;;;;;;;37.67;23.07;;;0.90;53.10;;;;;;4994988;28;20183;-54
2024/01/12 04:51:43;;;;;;;41.77;23.70;;;0.90;53.20;;;;;;4989079;28;20338;-56
2024/01/12 04:54:09;;;;;;;45.70;23.47;;;0.80;53.10;;;;;;4991668;28;20190;-56
2024/01/12 04:56:34;;;;;;;40.83;24.53;;;0.80;53.30;;;;;;4987215;28;20207;-54
2024/01/12 04:59:00;;;;;;;39.37;24.70;;;0.90;53.20;;;;;;4988914;28;20218;-54
2024/01/12 05:01:26;;;;;;;41.63;24.63;;;0.70;53.10;;;;;;4983866;28;20186;-54
2024/01/12 05:03:51;;;;;;;44.67;23.47;;;0.50;53.50;;;;;;4990651;28;20330;-53
2024/01/12 05:06:18;;;;;;;44.97;25.23;;;0.60;54.00;;;;;;4987253;28;20194;-55
2024/01/12 05:08:43;;;;;;;42.10;24.80;;;0.70;53.80;;;;;;4988849;28;20491;-54
2024/01/12 05:11:09;;;;;;;42.47;24.80;;;0.80;53.70;;;;;;4989378;28;20174;-56
2024/01/12 05:13:34;;;;;;;47.13;25.33;;;0.90;53.40;;;;;;4990474;28;20923;-53
2024/01/12 05:16:00;;;;;;;48.13;25.00;;;0.90;53.20;;;;;;4988913;28;20608;-53
2024/01/12 05:18:25;;;;;;;42.67;24.20;;;1.00;53.20;;;;;;4987815;28;20186;-55
2024/01/12 05:20:51;;;;;;;46.00;25.40;;;1.00;52.90;;;;;;4979801;28;20218;-59
2024/01/12 05:23:16;;;;;;;48.60;25.93;;;1.10;52.70;;;;;;4986826;28;20267;-59
2024/01/12 05:25:42;;;;;;;40.83;24.40;;;1.00;52.50;;;;;;4990099;28;20218;-54
2024/01/12 05:28:08;;;;;;;44.67;24.37;;;1.00;53.10;;;;;;4995166;28;20220;-52
2024/01/12 05:30:34;;;;;;;39.77;25.37;;;1.00;52.50;;;;;;4994114;28;20422;-57
2024/01/12 05:32:59;;;;;;;47.00;26.23;;;1.00;52.40;;;;;;4989569;28;20186;-56
2024/01/12 05:35:25;;;;;;;45.33;24.90;;;1.00;52.30;;;;;;4990497;28;20700;-58
2024/01/12 05:37:51;;;;;;;40.50;24.63;;;1.10;52.20;;;;;;4998185;28;20199;-54
2024/01/12 05:40:17;;;;;;;41.73;24.00;;;1.10;52.20;;;;;;4992577;28;20279;-57
2024/01/12 05:42:43;;;;;;;46.47;25.30;;;1.10;51.90;;;;;;4992162;28;20444;-56
2024/01/12 05:45:08;;;;;;;45.60;23.43;;;1.10;51.80;;;;;;4982512;28;20539;-55
2024/01/12 05:47:34;;;;;;;43.33;24.53;;;1.10;51.70;;;;;;4992198;28;20194;-52
2024/01/12 05:50:00;;;;;;;45.70;25.20;;;1.10;51.60;;;;;;4987867;28;20214;-56
2024/01/12 05:52:25;;;;;;;48.90;25.57;;;1.10;51.80;;;;;;4985717;28;20210;-58
2024/01/12 05:54:51;;;;;;;50.00;25.80;;;1.10;51.90;;;;;;4989151;28;20195;-52
2024/01/12 05:57:17;;;;;;;44.10;26.67;;;1.10;51.90;;;;;;4983012;28;20703;-56
2024/01/12 05:59:43;;;;;;;36.77;23.10;;;1.20;51.80;;;;;;4988128;28;20214;-56
2024/01/12 06:02:13;;;;;;;40.80;24.73;;;1.10;51.70;;;;;;4995245;28;20514;-55
2024/01/12 06:04:39;;;;;;;49.93;28.63;;;1.20;51.80;;;;;;4981671;28;20202;-53
2024/01/12 06:07:04;;;;;;;48.07;29.10;;;1.20;51.70;;;;;;4989138;28;20473;-56
2024/01/12 06:09:30;;;;;;;49.83;27.40;;;1.10;51.70;;;;;;4988101;28;20254;-54
2024/01/12 06:11:55;;;;;;;51.60;28.97;;;1.10;51.70;;;;;;4983525;28;20217;-57
2024/01/12 06:14:21;;;;;;;44.20;25.50;;;1.10;51.90;;;;;;4986667;28;20600;-51
2024/01/12 06:16:46;;;;;;;38.53;24.07;;;1.00;52.00;;;;;;4985614;28;20238;-54
2024/01/12 06:19:12;;;;;;;44.30;23.93;;;0.90;52.30;;;;;;4983803;28;20210;-60
2024/01/12 06:21:37;;;;;;;39.13;24.00;;;0.70;52.60;;;;;;4987249;28;20241;-58
2024/01/12 06:24:03;;;;;;;44.63;24.17;;;0.60;53.10;;;;;;4989765;28;20194;-56
2024/01/12 06:26:29;;;;;;;48.20;23.47;;;0.40;53.30;;;;;;4993397;28;20206;-53
2024/01/12 06:28:54;;;;;;;39.33;23.77;;;0.40;53.50;;;;;;4990172;28;20187;-56
2024/01/12 06:31:20;;;;;;;43.37;25.73;;;0.50;53.40;;;;;;4996358;28;20269;-56
2024/01/12 06:33:45;;;;;;;41.73;24.73;;;0.40;53.10;;;;;;4991380;28;20191;-57
2024/01/12 06:36:11;;;;;;;41.03;21.80;;;0.40;53.40;;;;;;4991752;28;20232;-54
2024/01/12 06:38:37;;;;;;;43.23;24.67;;;0.40;54.50;;;;;;4990148;28;20274;-53
2024/01/12 06:41:03;;;;;;;42.30;24.80;;;0.90;56.90;;;;;;4989143;28;20479;-55
2024/01/12 06:43:28;;;;;;;41.30;24.90;;;1.50;57.20;;;;;;4988210;28;20198;-58
2024/01/12 06:45:54;;;;;;;43.07;26.00;;;1.80;54.60;;;;;;4988207;28;20214;-56
2024/01/12 06:48:20;;;;;;;46.60;26.13;;;1.90;52.80;;;;;;4992178;28;20185;-54
2024/01/12 06:50:45;;;;;;;41.40;25.40;;;1.80;51.80;;;;;;4984801;28;20187;-59
2024/01/12 06:53:14;;;;;;;41.03;24.73;;;1.70;51.40;;;;;;4986327;28;20464;-58
2024/01/12 06:55:39;;;;;;;42.73;25.27;;;1.60;51.30;;;;;;4975176;28;20211;-55
2024/01/12 06:58:05;;;;;;;46.30;26.50;;;1.50;51.20;;;;;;4988614;28;20469;-56
2024/01/12 07:00:31;;;;;;;40.00;24.67;;;1.40;51.10;;;;;;4984328;28;20238;-56
2024/01/12 07:02:57;;;;;;;39.00;25.20;;;1.30;51.30;;;;;;4993689;28;20217;-52
2024/01/12 07:05:23;;;;;;;47.13;27.00;;;1.30;51.30;;;;;;4990932;28;20487;-53
2024/01/12 07:07:48;;;;;;;44.53;27.37;;;1.30;51.10;;;;;;4984091;28;20186;-56
2024/01/12 07:10:14;;;;;;;44.43;27.47;;;1.20;51.20;;;;;;4993853;28;20428;-54
2024/01/12 07:12:40;;;;;;;41.37;25.77;;;1.20;51.10;;;;;;4995038;28;20198;-51
2024/01/12 07:15:06;;;;;;;43.00;25.97;;;1.10;50.90;;;;;;4990248;28;20191;-55
2024/01/12 07:17:32;;;;;;;40.13;24.40;;;1.10;50.80;;;;;;4988718;28;20194;-54
2024/01/12 07:19:57;;;;;;;38.83;24.03;;;1.10;50.80;;;;;;4990994;28;20473;-54
2024/01/12 07:22:23;;;;;;;41.53;24.27;;;1.10;50.90;;;;;;4995322;28;20236;-51
2024/01/12 07:24:48;;;;;;;44.93;25.50;;;1.00;50.80;;;;;;4987048;28;20222;-52
2024/01/12 07:27:14;;;;;;;45.47;26.87;;;1.00;50.80;;;;;;4994018;28;20210;-53
2024/01/12 07:29:40;;;;;;;43.43;25.33;;;0.90;51.30;;;;;;4994684;28;20195;-55
2024/01/12 07:32:06;;;;;;;48.80;27.00;;;0.90;51.60;;;;;;4987454;28;20453;-56
2024/01/12 07:34:31;;;;;;;42.67;24.70;;;0.90;51.80;;;;;;4991070;28;20195;-51
2024/01/12 07:36:57;;;;;;;44.53;25.33;;;1.20;52.00;;;;;;4994345;28;20229;-55
2024/01/12 07:39:23;;;;;;;46.93;27.50;;;1.50;51.60;;;;;;4990019;28;20221;-52
2024/01/12 07:41:49;;;;;;;50.57;26.40;;;1.80;50.90;;;;;;4986428;28;20518;-54
2024/01/12 07:44:15;;;;;;;43.83;25.00;;;2.20;50.10;;;;;;4987920;28;20531;-54
2024/01/12 07:46:41;;;;;;;45.80;27.67;;;2.50;49.30;;;;;;4985093;28;20235;-55
2024/01/12 07:49:07;;;;;;;40.00;24.73;;;2.80;48.30;;;;;;4988626;28;20446;-56
2024/01/12 07:51:33;;;;;;;45.60;27.50;;;3.20;47.60;;;;;;4986706;28;21091;-52
2024/01/12 07:53:58;;;;;;;50.30;28.50;;;3.50;47.20;;;;;;4989937;28;20174;-54
2024/01/12 07:56:24;;;;;;;38.57;27.57;;;3.70;46.30;;;;;;4989821;28;20210;-55
2024/01/12 07:58:50;;;;;;;47.17;27.97;;;3.90;45.50;;;;;;4987509;28;20191;-54
2024/01/12 08:01:18;;;;;;;44.83;27.70;;;4.20;45.20;;;;;;4988688;28;20182;-53
2024/01/12 08:03:46;;;;;;;49.43;28.83;;;4.40;44.90;;;;;;4994034;28;20189;-54
2024/01/12 08:06:11;;;;;;;44.20;27.17;;;4.60;44.30;;;;;;4997462;28;20531;-53
2024/01/12 08:08:37;;;;;;;45.50;28.63;;;4.70;43.90;;;;;;4995083;28;20438;-55
2024/01/12 08:11:03;;;;;;;45.30;29.33;;;4.70;43.80;;;;;;4991298;28;20205;-55
2024/01/12 08:13:28;;;;;;;40.50;26.60;;;4.60;43.80;;;;;;4999821;28;20186;-55
2024/01/12 08:15:54;;;;;;;42.43;26.03;;;4.40;43.90;;;;;;4992168;28;20576;-55
2024/01/12 08:18:20;;;;;;;41.90;25.50;;;4.20;44.20;;;;;;4988626;28;20615;-55
2024/01/12 08:20:46;;;;;;;48.00;27.80;;;3.80;44.60;;;;;;4982018;28;20801;-53
2024/01/12 08:23:12;;;;;;;45.00;28.23;;;3.50;45.20;;;;;;4985370;28;20906;-54
2024/01/12 08:25:38;;;;;;;38.93;26.77;;;3.20;45.80;;;;;;4990657;28;20453;-54
2024/01/12 08:28:03;;;;;;;48.53;26.70;;;3.00;46.50;;;;;;4991880;28;20438;-53
2024/01/12 08:30:29;;;;;;;45.67;26.60;;;2.80;47.10;;;;;;4990669;28;20444;-55
2024/01/12 08:32:55;;;;;;;42.37;28.00;;;2.60;47.80;;;;;;4991148;28;20277;-53
2024/01/12 08:35:20;;;;;;;47.90;26.77;;;2.60;48.50;;;;;;4987953;28;20190;-52
2024/01/12 08:37:46;;;;;;;39.13;26.80;;;2.50;49.30;;;;;;4987326;28;20452;-50
2024/01/12 08:40:12;;;;;;;49.97;28.70;;;2.50;49.70;;;;;;4991181;28;20271;-54
2024/01/12 08:42:39;;;;;;;52.87;28.10;;;2.50;49.90;;;;;;4996375;28;20194;-52
2024/01/12 08:45:05;;;;;;;43.57;28.67;;;2.50;50.40;;;;;;4990606;28;20183;-56
2024/01/12 08:47:30;;;;;;;47.60;27.00;;;2.50;50.60;;;;;;4986592;28;20439;-57
2024/01/12 08:49:58;;;;;;;45.60;27.63;;;2.50;50.70;;;;;;4994766;28;20427;-53
2024/01/12 08:52:23;;;;;;;56.50;29.67;;;2.50;50.50;;;;;;4981939;28;20183;-57
2024/01/12 08:54:49;;;;;;;49.23;30.80;;;2.50;50.70;;;;;;4992537;28;20445;-56
2024/01/12 08:57:14;;;;;;;47.90;27.60;;;2.50;50.30;;;;;;4984401;28;20207;-55
2024/01/12 08:59:40;;;;;;;46.97;28.20;;;2.60;50.50;;;;;;4989131;28;20245;-53
2024/01/12 09:02:06;;;;;;;50.87;28.20;;;2.60;50.60;;;;;;4980291;28;20207;-55
2024/01/12 09:04:31;;;;;;;41.50;26.90;;;2.70;50.60;;;;;;4994434;28;20190;-57
2024/01/12 09:06:57;;;;;;;46.30;30.07;;;2.70;50.50;;;;;;4986010;28;20988;-54
2024/01/12 09:09:23;;;;;;;46.17;29.37;;;2.70;50.30;;;;;;4991005;28;20229;-56
2024/01/12 09:11:49;;;;;;;46.80;27.93;;;2.80;50.60;;;;;;4987184;28;20183;-53
2024/01/12 09:14:14;;;;;;;53.73;29.60;;;2.70;50.60;;;;;;5000574;28;20447;-53
2024/01/12 09:16:40;;;;;;;48.20;29.43;;;2.80;51.00;;;;;;4986996;28;20206;-56
2024/01/12 09:19:07;;;;;;;43.70;28.63;;;2.80;50.80;;;;;;4995647;28;20218;-57
2024/01/12 09:21:33;;;;;;;46.07;28.27;;;2.90;50.70;;;;;;4989669;28;20186;-54
2024/01/12 09:23:58;;;;;;;51.40;28.67;;;2.90;50.90;;;;;;4989656;28;20484;-57
2024/01/12 09:26:24;;;;;;;57.93;30.37;;;2.90;51.10;;;;;;4993495;28;20213;-55
2024/01/12 09:28:49;;;;;;;42.50;26.73;;;2.90;51.10;;;;;;4985971;28;20191;-56
2024/01/12 09:31:15;;;;;;;43.93;28.67;;;3.00;51.00;;;;;;4988425;28;20689;-57
2024/01/12 09:33:41;;;;;;;48.03;29.13;;;3.10;50.90;;;;;;4990982;28;20598;-56
2024/01/12 09:36:07;;;;;;;52.97;29.70;;;3.20;50.80;;;;;;4979357;28;20207;-58
2024/01/12 09:38:33;;;;;;;46.33;31.10;;;3.30;50.90;;;;;;4989193;28;20480;-57
2024/01/12 09:41:01;;;;;;;48.37;28.77;;;3.30;50.70;;;;;;4991175;28;20548;-56
2024/01/12 09:43:31;;;;;;;49.93;30.30;;;3.30;50.60;;;;;;4987428;28;20655;-58
2024/01/12 09:46:00;;;;;;;93.97;32.53;;;3.30;51.30;;;;;;4985777;28;20466;-54
2024/01/12 09:48:27;;;;;;;52.93;30.10;;;3.50;51.30;;;;;;4987512;28;20473;-57
2024/01/12 09:50:54;;;;;;;49.13;29.67;;;3.70;51.20;;;;;;4986887;28;20453;-57
2024/01/12 09:53:19;;;;;;;45.60;28.37;;;3.90;51.20;;;;;;4985217;28;20521;-57
2024/01/12 09:55:45;;;;;;;44.87;27.30;;;4.00;51.10;;;;;;4982613;28;20572;-58
2024/01/12 09:58:11;;;;;;;49.10;31.53;;;4.30;50.80;;;;;;4987575;28;20189;-57
2024/01/12 10:00:38;;;;;;;49.37;31.43;;;4.60;49.90;;;;;;4978289;28;20481;-57
2024/01/12 10:03:05;;;;;;;44.30;28.23;;;4.80;49.50;;;;;;4987660;28;20186;-57
2024/01/12 10:05:31;;;;;;;51.37;30.07;;;5.00;48.60;;;;;;4982519;28;22067;-57
2024/01/12 10:07:57;;;;;;;49.70;30.53;;;5.20;47.70;;;;;;4974897;28;20437;-57
2024/01/12 10:10:22;;;;;;;46.20;30.70;;;5.40;47.60;;;;;;4974361;28;20225;-58
2024/01/12 10:12:51;;;;;;;47.87;29.53;;;5.50;47.30;;;;;;4983512;28;20214;-54
2024/01/12 10:15:18;;;;;;;48.43;29.67;;;5.70;47.10;;;;;;4985554;28;20241;-58
2024/01/12 10:17:43;;;;;;;49.43;30.77;;;5.70;47.00;;;;;;4986428;28;20437;-58
2024/01/12 10:20:09;;;;;;;64.33;32.17;;;5.80;46.90;;;;;;4978266;28;20506;-55
2024/01/12 10:22:35;;;;;;;47.07;30.17;;;6.00;46.80;;;;;;4986464;28;20214;-56
2024/01/12 10:25:05;;;;;;;51.87;32.10;;;6.10;46.40;;;;;;4989873;28;20432;-55
2024/01/12 10:27:31;;;;;;;49.13;31.70;;;6.20;46.30;;;;;;4988767;28;20662;-60
2024/01/12 10:29:57;;;;;;;48.50;32.40;;;6.30;46.30;;;;;;4996079;28;20473;-59
2024/01/12 10:32:23;;;;;;;43.80;28.83;;;6.50;46.30;;;;;;4995139;28;20484;-57
2024/01/12 10:34:50;;;;;;;52.23;30.03;;;6.60;46.20;;;;;;4991030;28;20446;-57
2024/01/12 10:37:17;;;;;;;45.37;30.40;;;6.70;46.30;;;;;;4985614;28;20473;-55
2024/01/12 10:39:49;;;;;;;40.83;29.43;;;6.60;45.60;;;;;;4993027;28;20474;-56
2024/01/12 10:42:16;;;;;;;43.10;28.17;;;6.60;45.50;;;;;;4986452;28;20453;-56
2024/01/12 10:44:45;;;;;;;46.60;31.40;;;6.60;45.30;;;;;;4982417;28;20532;-59
2024/01/12 10:47:16;;;;;;;49.33;29.77;;;6.60;45.40;;;;;;4988879;28;20532;-60
2024/01/12 10:50:01;;;;;;;44.50;30.40;;;6.80;45.40;;;;;;4986781;28;20449;-59
2024/01/12 10:52:35;;;;;;;48.83;32.10;;;6.90;45.20;;;;;;4989382;28;20436;-60
2024/01/12 10:55:07;;;;;;;41.33;28.20;;;6.90;44.90;;;;;;4992094;28;20837;-59
2024/01/12 10:57:33;;;;;;;48.67;29.60;;;6.90;45.20;;;;;;4992306;28;20452;-60
2024/01/12 10:59:59;;;;;;;50.87;31.70;;;7.10;45.10;;;;;;4989075;28;20461;-58
2024/01/12 11:02:25;;;;;;;46.80;29.90;;;7.00;44.90;;;;;;4982610;28;20180;-59
2024/01/12 11:04:52;;;;;;;46.40;32.17;;;7.10;45.30;;;;;;4989067;28;20437;-60
2024/01/12 11:07:18;;;;;;;43.40;31.17;;;7.30;45.10;;;;;;4991927;28;20572;-60
2024/01/12 11:09:44;;;;;;;47.00;31.73;;;7.40;44.90;;;;;;4984861;28;20456;-59
2024/01/12 11:12:14;;;;;;;51.27;31.40;;;7.70;44.30;;;;;;4996220;28;20437;-59
2024/01/12 11:14:41;;;;;;;44.63;31.57;;;8.00;43.40;;;;;;4988811;28;20205;-59
2024/01/12 11:17:07;;;;;;;45.30;30.93;;;7.90;43.20;;;;;;4994657;28;20540;-58
2024/01/12 11:19:33;;;;;;;43.53;29.83;;;7.90;43.40;;;;;;4986956;28;21062;-59
2024/01/12 11:22:09;;;;;;;50.00;32.70;;;7.90;43.20;;;;;;4987569;28;20450;-59
2024/01/12 11:24:36;;;;;;;46.30;31.03;;;8.00;43.00;;;;;;4995245;28;20531;-59
2024/01/12 11:27:02;;;;;;;43.43;31.27;;;8.00;42.90;;;;;;4997058;28;20464;-60
2024/01/12 11:29:31;;;;;;;44.83;31.63;;;8.00;43.10;;;;;;4998571;28;20448;-59
2024/01/12 11:32:04;;;;;;;48.33;31.13;;;8.10;43.30;;;;;;4998737;28;20445;-59
2024/01/12 11:34:34;;;;;;;52.73;32.57;;;8.20;43.50;;;;;;4986174;28;20454;-58
2024/01/12 11:37:01;;;;;;;45.83;30.17;;;7.90;43.80;;;;;;4998197;28;20473;-59
2024/01/12 11:39:36;;;;;;;50.60;31.97;;;7.40;43.90;;;;;;4985147;28;20473;-59
2024/01/12 11:42:03;;;;;;;45.40;31.07;;;7.30;45.20;;;;;;4985252;28;20445;-58
2024/01/12 11:44:28;;;;;;;45.33;31.10;;;7.50;44.90;;;;;;4996036;28;20422;-59
2024/01/12 11:46:55;;;;;;;43.60;30.63;;;7.40;45.00;;;;;;4990887;28;20468;-59
2024/01/12 11:49:22;;;;;;;47.53;32.70;;;7.40;45.10;;;;;;4999513;28;20534;-58
2024/01/12 11:51:47;;;;;;;49.50;31.63;;;7.40;45.20;;;;;;4995686;28;21285;-60
2024/01/12 11:54:13;;;;;;;43.57;29.43;;;7.40;44.90;;;;;;4992242;28;20507;-58
2024/01/12 11:56:39;;;;;;;47.13;30.63;;;7.50;44.70;;;;;;4987482;28;20218;-58
2024/01/12 11:59:04;;;;;;;43.10;30.33;;;7.50;45.00;;;;;;4997944;28;20274;-60
2024/01/12 12:01:31;;;;;;;41.70;29.13;;;7.50;45.30;;;;;;4983783;28;20202;-58
2024/01/12 12:03:57;;;;;;;45.13;29.17;;;7.50;45.60;;;;;;4983991;28;20233;-60
2024/01/12 12:06:23;;;;;;;40.37;28.30;;;7.60;45.40;;;;;;4994518;28;20464;-57
2024/01/12 12:08:52;;;;;;;38.10;28.53;;;7.70;45.40;;;;;;4993505;28;20460;-60
2024/01/12 12:11:18;;;;;;;46.27;30.47;;;7.70;44.60;;;;;;4989904;28;20198;-58
2024/01/12 12:13:44;;;;;;;41.23;28.63;;;7.80;44.10;;;;;;4993125;28;20446;-57
2024/01/12 12:16:09;;;;;;;45.53;29.10;;;7.80;44.10;;;;;;4997493;28;20449;-59
2024/01/12 12:18:35;;;;;;;40.40;28.47;;;7.70;44.40;;;;;;4994491;28;20201;-59
2024/01/12 12:21:01;;;;;;;42.10;28.87;;;7.80;44.40;;;;;;4984257;28;20561;-59
2024/01/12 12:23:28;;;;;;;45.30;29.50;;;7.90;44.30;;;;;;4997342;28;20186;-59
2024/01/12 12:25:54;;;;;;;39.73;28.13;;;7.80;44.10;;;;;;4996330;28;20309;-59
2024/01/12 12:28:21;;;;;;;41.53;27.80;;;7.90;44.00;;;;;;4990145;28;20497;-59
2024/01/12 12:30:46;;;;;;;43.20;26.90;;;7.90;44.10;;;;;;4996426;28;20437;-57